Time;durP1;ratioP1;P1;durP2;ratioP2;P2;SDS_P1;SDS_P2;PMS_P1;PMS_P2;Temp;Humidity;BMP_temperature;BMP_pressure;BME280_temperature;BME280_humidity;BME280_pressure;Samples;Min_cycle;Max_cycle;Signal;HPM_P1;HPM_P2
2023/03/18 00:01:36;;;;;;;;;;;;;;;;;;;;;
2023/03/18 00:04:16;;;;;;;4.63;2.63;;;;;;;;;;5133528;27;20455;-77
2023/03/18 00:07:07;;;;;;;3.20;2.80;;;;;;;;;;5134472;27;20441;-77
2023/03/18 00:10:08;;;;;;;3.57;2.53;;;;;;;;;;5132636;27;20457;-76
2023/03/18 00:15:48;;;;;;;4.07;3.70;;;;;;;;;;5124088;27;20457;-76
2023/03/18 00:18:34;;;;;;;7.07;3.60;;;;;;;;;;5132462;27;20499;-76
2023/03/18 00:21:08;;;;;;;3.87;3.50;;;;;;;;;;5131721;27;20503;-76
2023/03/18 00:23:49;;;;;;;5.30;4.23;;;;;;;;;;5132257;27;20470;-77
2023/03/18 00:26:29;;;;;;;4.87;3.93;;;;;;;;;;5133016;27;20440;-76
2023/03/18 00:29:14;;;;;;;5.07;3.77;;;;;;;;;;5133660;27;20448;-75
2023/03/18 00:32:06;;;;;;;6.20;4.63;;;;;;;;;;5133895;27;20484;-76
2023/03/18 00:34:53;;;;;;;6.70;3.70;;;;;;;;;;5133339;27;20462;-78
2023/03/18 00:37:35;;;;;;;4.77;3.60;;;;;;;;;;5135934;27;20477;-77
2023/03/18 00:40:16;;;;;;;4.27;3.90;;;;;;;;;;5129520;27;20492;-78
2023/03/18 00:49:00;;;;;;;5.47;3.67;;;;;;;;;;5128103;27;20446;-76
2023/03/18 00:51:43;;;;;;;4.83;3.90;;;;;;;;;;5131727;27;20442;-77
2023/03/18 01:09:55;;;;;;;;;;;;;;;;;;;;;
2023/03/18 01:12:37;;;;;;;2.97;2.77;;;;;;;;;;5038913;28;20431;-77
2023/03/18 01:15:39;;;;;;;3.60;3.07;;;;;;;;;;5087527;22;20494;-78
2023/03/18 01:18:41;;;;;;;5.63;3.20;;;;;;;;;;4956729;29;20560;-78
2023/03/18 01:21:21;;;;;;;4.60;2.83;;;;;;;;;;4955763;28;20453;-77
2023/03/18 02:30:00;;;;;;;1.87;1.77;;;;;;;;;;6106397;23;20474;-77
2023/03/18 02:32:59;;;;;;;2.03;1.87;;;;;;;;;;6117706;22;20475;-77
2023/03/18 02:35:55;;;;;;;1.80;1.70;;;;;;;;;;6255817;22;20421;-76
2023/03/18 02:38:43;;;;;;;1.90;1.70;;;;;;;;;;6255740;22;20444;-78
2023/03/18 02:41:37;;;;;;;;;;;;;;;;;;;;;
2023/03/18 03:18:31;;;;;;;2.53;2.10;;;;;;;;;;6245248;22;20770;-77
2023/03/18 03:24:07;;;;;;;3.30;2.50;;;;;;;;;;6245823;23;20421;-77
2023/03/18 03:29:39;;;;;;;2.00;1.80;;;;;;;;;;6210705;23;20451;-76
2023/03/18 03:32:42;;;;;;;2.03;1.83;;;;;;;;;;6254393;23;20410;-77
2023/03/18 03:35:34;;;;;;;1.63;1.53;;;;;;;;;;6254002;23;20425;-77
2023/03/18 03:38:38;;;;;;;2.67;2.23;;;;;;;;;;6251662;23;20410;-78
2023/03/18 03:41:26;;;;;;;;;;;;;;;;;;;;;
2023/03/18 03:50:19;;;;;;;;;;;;;;;;;;;;;
2023/03/18 03:53:05;;;;;;;1.33;1.23;;;;;;;;;;6251919;23;20385;-77
2023/03/18 03:55:47;;;;;;;3.93;1.90;;;;;;;;;;6254182;23;20421;-77
2023/03/18 04:26:25;;;;;;;3.10;2.10;;;;;;;;;;5928418;24;20395;-77
2023/03/18 04:29:28;;;;;;;4.50;2.03;;;;;;;;;;6039465;23;20443;-77
2023/03/18 04:35:29;;;;;;;3.70;2.60;;;;;;;;;;6167112;23;20684;-77
2023/03/18 04:38:22;;;;;;;4.37;2.53;;;;;;;;;;6192215;23;20411;-77
2023/03/18 04:41:05;;;;;;;3.13;2.17;;;;;;;;;;6191431;23;20414;-78
2023/03/18 04:43:39;;;;;;;2.97;2.40;;;;;;;;;;6190897;23;20438;-76
2023/03/18 04:46:32;;;;;;;;;;;;;;;;;;;;;
2023/03/18 04:58:38;;;;;;;4.60;1.77;;;;;;;;;;6183027;23;20467;-76
2023/03/18 05:01:20;;;;;;;4.03;2.60;;;;;;;;;;6177335;23;20435;-76
2023/03/18 05:04:10;;;;;;;4.73;2.87;;;;;;;;;;6185080;23;20518;-76
2023/03/18 05:06:44;;;;;;;3.23;2.47;;;;;;;;;;6189605;23;20415;-77
2023/03/18 05:09:33;;;;;;;4.63;2.70;;;;;;;;;;6190094;23;20446;-76
2023/03/18 05:33:37;;;;;;;6.03;5.50;;;;;;;;;;5884994;24;20481;-76
2023/03/18 05:36:24;;;;;;;6.57;5.87;;;;;;;;;;6063735;23;20426;-77
2023/03/18 05:42:08;;;;;;;6.83;5.97;;;;;;;;;;6199024;23;20955;-76
2023/03/18 05:44:55;;;;;;;8.40;6.60;;;;;;;;;;6215135;23;20430;-76
2023/03/18 05:50:34;;;;;;;5.90;5.30;;;;;;;;;;6210068;23;20872;-77
2023/03/18 05:53:09;;;;;;;6.70;6.10;;;;;;;;;;6215524;23;20437;-78
2023/03/18 05:56:11;;;;;;;6.20;5.47;;;;;;;;;;6215667;23;20813;-77
2023/03/18 05:58:55;;;;;;;8.23;6.20;;;;;;;;;;6217255;23;20417;-75
2023/03/18 06:01:44;;;;;;;8.47;6.40;;;;;;;;;;6217123;23;20420;-79
2023/03/18 06:07:46;;;;;;;7.00;6.40;;;;;;;;;;6216405;23;20958;-77
2023/03/18 06:10:17;;;;;;;7.37;6.67;;;;;;;;;;6219230;23;20426;-78
2023/03/18 06:13:05;;;;;;;8.53;5.83;;;;;;;;;;6220047;23;20390;-76
2023/03/18 06:15:39;;;;;;;6.97;5.67;;;;;;;;;;6128292;23;20426;-77
2023/03/18 06:18:16;;;;;;;9.27;6.27;;;;;;;;;;6219482;23;20410;-78
2023/03/18 06:20:51;;;;;;;7.17;6.47;;;;;;;;;;6219068;23;20410;-79
2023/03/18 06:57:23;;;;;;;7.73;5.80;;;;;;;;;;6013855;23;20423;-78
2023/03/18 07:00:07;;;;;;;8.10;6.40;;;;;;;;;;6234855;22;20432;-77
2023/03/18 07:02:45;;;;;;;6.63;5.93;;;;;;;;;;6247272;22;20390;-76
2023/03/18 07:11:15;;;;;;;;;;;;;;;;;;;;;
2023/03/18 07:14:00;;;;;;;8.07;7.27;;;;;;;;;;6247698;23;20461;-76
2023/03/18 07:16:42;;;;;;;7.83;6.03;;;;;;;;;;6247757;22;20412;-76
2023/03/18 07:19:22;;;;;;;8.23;6.80;;;;;;;;;;6251300;23;20404;-76
2023/03/18 07:24:49;;;;;;;;;;;;;;;;;;;;;
2023/03/18 07:30:13;;;;;;;9.77;6.60;;;;;;;;;;6250023;22;20828;-77
2023/03/18 07:32:59;;;;;;;9.50;5.70;;;;;;;;;;6250163;23;20470;-77
2023/03/18 07:46:42;;;;;;;5.70;4.73;;;;;;;;;;6201700;23;20505;-77
2023/03/18 07:49:29;;;;;;;6.03;5.20;;;;;;;;;;6220784;23;20492;-76
2023/03/18 07:52:18;;;;;;;5.97;5.00;;;;;;;;;;6220018;23;20434;-76
2023/03/18 07:54:53;;;;;;;7.10;5.73;;;;;;;;;;6219785;23;20501;-77
2023/03/18 07:57:30;;;;;;;7.00;5.40;;;;;;;;;;6219863;23;20437;-78
2023/03/18 08:00:18;;;;;;;9.20;5.10;;;;;;;;;;6219778;23;20500;-77
2023/03/18 08:03:01;;;;;;;6.27;5.10;;;;;;;;;;6219216;23;20411;-77
2023/03/18 08:08:59;;;;;;;5.43;4.60;;;;;;;;;;6214251;23;20472;-77
2023/03/18 08:11:40;;;;;;;5.87;4.23;;;;;;;;;;6222050;23;20481;-77
2023/03/18 08:25:29;;;;;;;5.10;4.00;;;;;;;;;;6246661;23;20437;-76
2023/03/18 08:28:17;;;;;;;4.43;3.80;;;;;;;;;;6243991;23;20500;-76
2023/03/18 08:31:29;;;;;;;4.57;3.67;;;;;;;;;;6245949;23;20409;-78
2023/03/18 08:37:07;;;;;;;4.80;3.80;;;;;;;;;;6243357;22;20405;-76
2023/03/18 09:12:53;;;;;;;3.10;2.90;;;;;;;;;;6235409;23;20421;-76
2023/03/18 09:45:50;;;;;;;2.80;2.60;;;;;;;;;;6270388;22;20758;-75
2023/03/18 09:54:15;;;;;;;3.03;2.80;;;;;;;;;;6267947;22;20439;-76
2023/03/18 09:59:48;;;;;;;7.13;6.43;;;;;;;;;;6277346;22;20388;-75
2023/03/18 10:02:32;;;;;;;2.83;2.57;;;;;;;;;;6278423;22;20408;-76
2023/03/18 10:08:16;;;;;;;3.03;2.73;;;;;;;;;;6276903;22;20443;-75
2023/03/18 10:13:57;;;;;;;5.40;3.87;;;;;;;;;;6256217;22;20439;-76
2023/03/18 10:19:57;;;;;;;3.00;2.53;;;;;;;;;;6274904;22;20411;-77
2023/03/18 10:31:56;;;;;;;9.07;8.20;;;;;;;;;;6215040;23;20397;-75
2023/03/18 10:44:06;;;;;;;;;;;;;;;;;;;;;
2023/03/18 10:47:09;;;;;;;2.30;2.07;;;;;;;;;;6280324;22;20388;-77
2023/03/18 10:49:56;;;;;;;4.27;2.33;;;;;;;;;;6278075;22;20435;-78
2023/03/18 10:55:28;;;;;;;3.23;2.47;;;;;;;;;;6271295;22;20511;-76
2023/03/18 10:58:28;;;;;;;;;;;;;;;;;;;;;
2023/03/18 11:19:38;;;;;;;2.10;1.57;;;;;;;;;;6274568;22;20408;-75
2023/03/18 11:22:23;;;;;;;1.87;1.33;;;;;;;;;;6275094;22;20504;-77
2023/03/18 11:25:22;;;;;;;1.90;1.50;;;;;;;;;;6274823;22;20428;-75
2023/03/18 11:28:11;;;;;;;1.50;1.40;;;;;;;;;;6275800;22;20439;-77
2023/03/18 11:36:32;;;;;;;4.10;1.60;;;;;;;;;;6257216;22;20400;-77
2023/03/18 11:39:26;;;;;;;4.43;1.80;;;;;;;;;;6277203;22;20482;-76
2023/03/18 11:42:34;;;;;;;2.43;1.40;;;;;;;;;;6277640;22;20488;-77
2023/03/18 11:45:30;;;;;;;2.40;1.33;;;;;;;;;;6274412;22;20492;-77
2023/03/18 11:48:19;;;;;;;2.03;1.63;;;;;;;;;;6280559;22;20408;-77
2023/03/18 11:51:08;;;;;;;2.50;1.80;;;;;;;;;;6218180;22;20448;-77
2023/03/18 12:08:50;;;;;;;2.90;1.30;;;;;;;;;;5983123;24;20520;-78
2023/03/18 12:11:47;;;;;;;2.30;1.70;;;;;;;;;;6068416;23;20446;-78
2023/03/18 12:14:37;;;;;;;1.43;1.20;;;;;;;;;;6133029;23;20431;-76
2023/03/18 12:20:55;;;;;;;4.20;1.73;;;;;;;;;;6207735;23;20410;-77
2023/03/18 12:23:46;;;;;;;3.33;2.27;;;;;;;;;;6217537;23;20884;-76
2023/03/18 12:26:39;;;;;;;1.43;1.33;;;;;;;;;;6218267;23;20410;-76
2023/03/18 12:44:40;;;;;;;2.97;1.70;;;;;;;;;;6126357;23;20614;-75
2023/03/18 12:47:31;;;;;;;1.67;1.30;;;;;;;;;;6207155;23;20449;-76
2023/03/18 12:50:18;;;;;;;5.20;1.60;;;;;;;;;;6220321;23;20438;-75
2023/03/18 12:53:07;;;;;;;2.27;1.50;;;;;;;;;;6217872;23;20410;-75
2023/03/18 12:58:42;;;;;;;2.30;1.60;;;;;;;;;;6185623;23;20402;-77
2023/03/18 13:01:33;;;;;;;3.87;1.70;;;;;;;;;;6215783;23;20434;-76
2023/03/18 13:12:57;;;;;;;2.00;1.50;;;;;;;;;;6278385;22;20469;-75
2023/03/18 13:18:45;;;;;;;;;;;;;;;;;;;;;
2023/03/18 13:21:18;;;;;;;1.63;1.40;;;;;;;;;;6281290;22;20440;-76
2023/03/18 13:24:14;;;;;;;1.90;1.77;;;;;;;;;;6276879;22;20450;-76
2023/03/18 13:27:10;;;;;;;2.93;1.53;;;;;;;;;;6278146;22;20911;-78
2023/03/18 13:29:48;;;;;;;1.63;1.37;;;;;;;;;;6278453;22;20416;-76
2023/03/18 13:32:37;;;;;;;2.40;1.67;;;;;;;;;;6278159;22;20430;-77
2023/03/18 13:44:00;;;;;;;3.00;1.70;;;;;;;;;;6126922;23;20484;-77
2023/03/18 13:46:43;;;;;;;1.73;1.30;;;;;;;;;;6156232;23;20447;-75
2023/03/18 13:55:33;;;;;;;1.83;1.10;;;;;;;;;;6242682;22;20468;-76
2023/03/18 13:58:26;;;;;;;2.87;1.70;;;;;;;;;;6245026;23;20416;-76
2023/03/18 14:01:20;;;;;;;1.53;1.40;;;;;;;;;;6244347;22;20416;-77
2023/03/18 14:04:00;;;;;;;1.70;1.53;;;;;;;;;;6244229;23;20930;-77
2023/03/18 14:06:58;;;;;;;5.13;1.20;;;;;;;;;;6245876;22;20714;-76
2023/03/18 14:09:40;;;;;;;2.00;1.50;;;;;;;;;;6245679;22;20906;-77
2023/03/18 14:12:30;;;;;;;1.97;1.57;;;;;;;;;;6245469;23;20397;-76
2023/03/18 14:15:33;;;;;;;;;;;;;;;;;;;;;
2023/03/18 14:18:11;;;;;;;1.10;1.00;;;;;;;;;;6245244;23;20392;-76
2023/03/18 14:20:48;;;;;;;2.13;1.30;;;;;;;;;;6245307;23;20433;-76
2023/03/18 14:23:43;;;;;;;2.40;1.20;;;;;;;;;;6246235;23;20497;-79
2023/03/18 14:26:36;;;;;;;2.70;1.30;;;;;;;;;;6175721;23;20816;-76
2023/03/18 14:29:30;;;;;;;1.43;1.10;;;;;;;;;;6249428;22;20405;-75
2023/03/18 14:32:22;;;;;;;2.53;1.33;;;;;;;;;;6255062;22;20443;-75
2023/03/18 14:35:02;;;;;;;3.07;1.30;;;;;;;;;;6243484;22;20428;-76
2023/03/18 14:37:57;;;;;;;1.83;1.20;;;;;;;;;;6244118;22;20508;-76
2023/03/18 14:40:38;;;;;;;2.33;1.67;;;;;;;;;;6243583;22;20435;-75
2023/03/18 14:43:28;;;;;;;1.00;0.90;;;;;;;;;;6246015;23;20508;-74
2023/03/18 14:46:07;;;;;;;2.77;1.40;;;;;;;;;;6248445;22;20481;-75
2023/03/18 14:48:45;;;;;;;2.27;1.10;;;;;;;;;;6251205;23;20419;-76
2023/03/18 14:51:21;;;;;;;1.23;1.13;;;;;;;;;;6246322;23;21244;-76
2023/03/18 14:53:55;;;;;;;1.87;1.30;;;;;;;;;;6247325;22;21007;-76
2023/03/18 14:56:24;;;;;;;1.20;1.10;;;;;;;;;;6248444;22;20511;-78
2023/03/18 14:58:55;;;;;;;2.57;1.40;;;;;;;;;;6247728;22;20398;-78
2023/03/18 15:11:05;;;;;;;2.63;1.60;;;;;;;;;;6089170;23;20476;-76
2023/03/18 15:13:40;;;;;;;2.60;2.33;;;;;;;;;;6093200;23;20785;-78
2023/03/18 15:16:33;;;;;;;3.00;1.40;;;;;;;;;;6228183;23;20405;-76
2023/03/18 15:19:11;;;;;;;1.40;1.30;;;;;;;;;;6246677;22;20415;-75
2023/03/18 15:21:55;;;;;;;4.20;1.40;;;;;;;;;;6246849;23;20472;-77
2023/03/18 15:24:59;;;;;;;1.80;1.50;;;;;;;;;;6270061;22;20447;-76
2023/03/18 15:27:54;;;;;;;1.90;1.80;;;;;;;;;;6308922;22;20460;-76
2023/03/18 15:30:48;;;;;;;2.10;1.83;;;;;;;;;;6299708;22;20439;-77
2023/03/18 15:33:28;;;;;;;3.40;2.40;;;;;;;;;;6309964;22;20498;-78
2023/03/18 15:39:22;;;;;;;2.00;1.90;;;;;;;;;;6280005;22;20395;-77
2023/03/18 15:42:07;;;;;;;;;;;;;;;;;;;;;
2023/03/18 15:44:46;;;;;;;3.20;2.17;;;;;;;;;;6280081;22;20417;-77
2023/03/18 15:47:42;;;;;;;3.17;2.10;;;;;;;;;;6281117;22;20415;-76
2023/03/18 15:53:16;;;;;;;15.03;10.23;;;;;;;;;;6278002;22;20436;-76
2023/03/18 15:56:06;;;;;;;3.80;2.30;;;;;;;;;;6283507;22;20539;-77
2023/03/18 15:58:47;;;;;;;2.20;2.10;;;;;;;;;;6281561;22;20511;-76
2023/03/18 16:01:33;;;;;;;3.37;2.60;;;;;;;;;;6282444;22;20411;-77
2023/03/18 16:10:22;;;;;;;4.10;2.40;;;;;;;;;;6278072;22;20407;-76
2023/03/18 16:18:58;;;;;;;;;;;;;;;;;;;;;
2023/03/18 16:36:10;;;;;;;5.47;4.33;;;;;;;;;;6278233;22;20466;-76
2023/03/18 16:38:47;;;;;;;7.03;4.13;;;;;;;;;;6280263;22;20412;-77
2023/03/18 16:41:28;;;;;;;5.40;3.83;;;;;;;;;;6279262;22;20389;-79
2023/03/18 16:44:07;;;;;;;4.73;3.30;;;;;;;;;;6277128;22;20943;-76
2023/03/18 16:50:05;;;;;;;2.63;2.43;;;;;;;;;;6261929;22;20384;-76
2023/03/18 16:52:42;;;;;;;2.80;2.33;;;;;;;;;;6279217;22;20464;-78
2023/03/18 16:55:38;;;;;;;5.27;3.00;;;;;;;;;;6277423;22;20428;-78
2023/03/18 17:01:44;;;;;;;4.90;3.43;;;;;;;;;;6202495;23;20434;-79
2023/03/18 17:13:58;;;;;;;4.67;3.10;;;;;;;;;;6120743;23;20413;-77
2023/03/18 17:16:37;;;;;;;3.97;2.70;;;;;;;;;;6243403;22;20411;-77
2023/03/18 17:19:12;;;;;;;3.67;2.50;;;;;;;;;;6312663;22;20411;-76
2023/03/18 17:22:04;;;;;;;3.00;2.80;;;;;;;;;;6310208;22;20816;-76
2023/03/18 17:24:42;;;;;;;3.50;2.70;;;;;;;;;;6308803;22;20518;-77
2023/03/18 17:27:34;;;;;;;6.27;2.90;;;;;;;;;;6308048;22;20495;-77
2023/03/18 17:33:28;;;;;;;6.43;3.30;;;;;;;;;;6308930;22;20418;-76
2023/03/18 17:45:04;;;;;;;5.00;3.90;;;;;;;;;;6307164;22;20936;-77
2023/03/18 17:48:11;;;;;;;5.40;3.77;;;;;;;;;;6290166;22;20408;-76
2023/03/18 17:54:03;;;;;;;3.73;3.40;;;;;;;;;;6278291;22;20414;-77
2023/03/18 17:57:05;;;;;;;20.70;18.57;;;;;;;;;;6304648;22;20431;-77
2023/03/18 17:59:54;;;;;;;4.60;3.90;;;;;;;;;;6269498;22;20419;-76
2023/03/18 18:08:59;;;;;;;7.90;4.20;;;;;;;;;;6163904;22;20451;-77
2023/03/18 18:11:46;;;;;;;7.83;3.83;;;;;;;;;;6306991;22;20435;-76
2023/03/18 18:24:59;;;;;;;7.77;4.60;;;;;;;;;;6247725;22;20434;-79
2023/03/18 18:46:17;;;;;;;5.70;4.93;;;;;;;;;;6303429;22;20451;-76
2023/03/18 18:49:07;;;;;;;4.37;3.70;;;;;;;;;;6227395;23;20505;-77
2023/03/18 18:51:43;;;;;;;6.70;5.00;;;;;;;;;;6239665;22;20433;-76
2023/03/18 19:00:18;;;;;;;4.60;4.20;;;;;;;;;;6355839;22;20473;-76
2023/03/18 19:03:02;;;;;;;6.87;4.00;;;;;;;;;;6353978;22;20394;-75
2023/03/18 19:08:38;;;;;;;4.00;3.60;;;;;;;;;;6348469;22;20441;-78
2023/03/18 19:11:17;;;;;;;10.33;6.20;;;;;;;;;;6350883;22;20383;-77
2023/03/18 19:16:49;;;;;;;5.07;4.57;;;;;;;;;;6325197;22;20399;-76
2023/03/18 19:19:27;;;;;;;5.60;5.00;;;;;;;;;;6341103;22;20486;-79
2023/03/18 19:22:05;;;;;;;7.50;4.70;;;;;;;;;;6341920;22;20805;-79
2023/03/18 19:24:55;;;;;;;6.40;4.67;;;;;;;;;;6347077;22;20426;-79
2023/03/18 19:27:25;;;;;;;5.43;4.93;;;;;;;;;;6340839;22;20891;-79
2023/03/18 19:29:53;;;;;;;6.23;5.40;;;;;;;;;;6351886;22;20490;-78
2023/03/18 19:32:25;;;;;;;6.10;4.60;;;;;;;;;;6350315;22;20431;-78
2023/03/18 19:34:57;;;;;;;9.43;6.90;;;;;;;;;;6349134;22;20460;-78
2023/03/18 19:40:28;;;;;;;7.10;5.20;;;;;;;;;;6329364;22;20796;-78
2023/03/18 19:43:07;;;;;;;8.40;5.60;;;;;;;;;;6356274;22;20403;-79
2023/03/18 19:45:39;;;;;;;4.97;4.47;;;;;;;;;;6354828;22;20430;-78
2023/03/18 19:48:27;;;;;;;4.93;4.53;;;;;;;;;;6355479;22;20864;-78
2023/03/18 19:51:28;;;;;;;5.07;4.57;;;;;;;;;;6354284;22;20406;-80
2023/03/18 19:53:59;;;;;;;6.13;5.47;;;;;;;;;;6333068;22;20833;-78
2023/03/18 20:04:57;;;;;;;10.27;6.60;;;;;;;;;;6341549;22;20460;-78
2023/03/18 20:07:57;;;;;;;12.43;7.20;;;;;;;;;;6341544;22;20383;-78
2023/03/18 20:10:51;;;;;;;9.17;7.20;;;;;;;;;;6342240;22;20406;-78
2023/03/18 20:14:00;;;;;;;9.33;6.80;;;;;;;;;;6340382;22;20767;-79
2023/03/18 20:16:42;;;;;;;7.90;6.70;;;;;;;;;;6340390;22;20410;-77
2023/03/18 20:22:36;;;;;;;9.80;7.90;;;;;;;;;;6251742;23;20428;-77
2023/03/18 20:30:59;;;;;;;9.73;8.27;;;;;;;;;;6325794;22;20480;-78
2023/03/18 20:33:31;;;;;;;15.23;12.67;;;;;;;;;;6351575;22;20487;-79
2023/03/18 20:36:00;;;;;;;11.80;9.07;;;;;;;;;;6352487;22;20417;-78
2023/03/18 20:38:32;;;;;;;9.70;8.77;;;;;;;;;;6352819;22;20441;-79
2023/03/18 20:41:06;;;;;;;13.00;9.40;;;;;;;;;;6354189;22;20399;-79
2023/03/18 20:43:49;;;;;;;10.63;9.50;;;;;;;;;;6351276;22;20459;-79
2023/03/18 20:46:20;;;;;;;12.83;10.10;;;;;;;;;;6352506;22;20424;-79
2023/03/18 20:52:07;;;;;;;9.97;7.70;;;;;;;;;;6310003;22;20435;-78
2023/03/18 20:58:35;;;;;;;11.57;7.60;;;;;;;;;;6239990;22;20406;-79
2023/03/18 21:01:22;;;;;;;9.40;7.70;;;;;;;;;;6347007;22;20402;-79
2023/03/18 21:13:22;;;;;;;11.17;9.17;;;;;;;;;;6150687;23;20447;-78
2023/03/18 21:16:20;;;;;;;9.73;8.23;;;;;;;;;;6328825;22;20486;-79
2023/03/18 21:19:20;;;;;;;10.13;9.03;;;;;;;;;;6337516;22;20421;-78
2023/03/18 21:25:10;;;;;;;9.87;7.77;;;;;;;;;;6334247;22;20465;-79
2023/03/18 21:28:13;;;;;;;10.57;8.20;;;;;;;;;;6341195;22;20422;-80
2023/03/18 21:31:27;;;;;;;14.23;9.13;;;;;;;;;;6346505;22;20417;-79
2023/03/18 21:37:05;;;;;;;11.73;8.77;;;;;;;;;;6346576;22;20391;-79
2023/03/18 21:40:14;;;;;;;10.37;9.30;;;;;;;;;;6348176;22;20492;-79
2023/03/18 21:43:04;;;;;;;13.43;9.33;;;;;;;;;;6346637;22;21141;-79
2023/03/18 21:45:53;;;;;;;9.77;8.37;;;;;;;;;;6347663;22;20434;-78
2023/03/18 21:48:55;;;;;;;;;;;;;;;;;;;;;
2023/03/18 21:57:57;;;;;;;101.87;80.37;;;;;;;;;;6346891;22;20569;-79
2023/03/18 22:00:56;;;;;;;11.23;9.43;;;;;;;;;;6349453;22;20406;-79
2023/03/18 22:28:36;;;;;;;9.07;7.40;;;;;;;;;;5922663;24;20406;-80
2023/03/18 22:31:36;;;;;;;9.97;7.23;;;;;;;;;;5933724;24;20895;-78
2023/03/18 22:34:31;;;;;;;9.20;7.60;;;;;;;;;;6103422;23;20450;-79
2023/03/18 22:43:33;;;;;;;8.93;8.03;;;;;;;;;;6195016;23;20951;-78
2023/03/18 22:46:30;;;;;;;8.17;7.37;;;;;;;;;;6230968;23;20421;-78
2023/03/18 22:49:17;;;;;;;10.83;7.83;;;;;;;;;;6246218;23;20461;-80
2023/03/18 22:52:07;;;;;;;10.40;8.13;;;;;;;;;;6267083;22;20406;-79
2023/03/18 22:54:50;;;;;;;12.77;9.33;;;;;;;;;;6341465;22;20437;-79
2023/03/18 22:57:37;;;;;;;11.10;8.40;;;;;;;;;;6341728;22;20449;-80
2023/03/18 23:06:08;;;;;;;12.87;9.67;;;;;;;;;;6321849;22;20411;-78
2023/03/18 23:09:06;;;;;;;8.83;7.93;;;;;;;;;;6339050;22;20880;-78
2023/03/18 23:11:49;;;;;;;15.67;8.70;;;;;;;;;;6294788;22;20766;-77
2023/03/18 23:14:55;;;;;;;12.20;10.70;;;;;;;;;;6336762;22;20421;-78
2023/03/18 23:17:55;;;;;;;11.40;9.13;;;;;;;;;;6339309;22;20497;-80
2023/03/18 23:23:50;;;;;;;;;;;;;;;;;;;;;
2023/03/18 23:33:09;;;;;;;10.53;8.17;;;;;;;;;;6330366;22;20970;-81
2023/03/18 23:36:10;;;;;;;9.23;8.43;;;;;;;;;;6309964;22;20426;-79
2023/03/18 23:38:51;;;;;;;12.20;8.80;;;;;;;;;;6341300;22;20410;-81
2023/03/18 23:41:34;;;;;;;8.80;7.80;;;;;;;;;;6342721;22;20413;-81
2023/03/18 23:50:30;;;;;;;9.00;8.10;;;;;;;;;;6330123;22;20715;-79
2023/03/18 23:56:26;;;;;;;10.33;8.30;;;;;;;;;;6337418;22;20399;-78
